sensor_id;sensor_type;location;lat;lon;timestamp;P1;durP1;ratioP1;P2;durP2;ratioP2
44222;SDS011;29895;48.804;9.386;2023-12-20T00:00:35;3.28;;;1.63;;
44222;SDS011;29895;48.804;9.386;2023-12-20T00:03:02;2.65;;;1.48;;
44222;SDS011;29895;48.804;9.386;2023-12-20T00:05:29;2.50;;;1.50;;
44222;SDS011;29895;48.804;9.386;2023-12-20T00:07:57;2.10;;;1.20;;
44222;SDS011;29895;48.804;9.386;2023-12-20T00:10:22;2.92;;;1.20;;
44222;SDS011;29895;48.804;9.386;2023-12-20T00:12:48;3.00;;;1.38;;
44222;SDS011;29895;48.804;9.386;2023-12-20T00:15:13;2.03;;;1.17;;
44222;SDS011;29895;48.804;9.386;2023-12-20T00:17:39;2.50;;;1.40;;
44222;SDS011;29895;48.804;9.386;2023-12-20T00:20:05;2.13;;;1.10;;
44222;SDS011;29895;48.804;9.386;2023-12-20T00:22:31;3.20;;;1.60;;
44222;SDS011;29895;48.804;9.386;2023-12-20T00:24:57;1.60;;;0.98;;
44222;SDS011;29895;48.804;9.386;2023-12-20T00:27:22;1.52;;;1.08;;
44222;SDS011;29895;48.804;9.386;2023-12-20T00:29:48;2.30;;;1.38;;
44222;SDS011;29895;48.804;9.386;2023-12-20T00:32:15;1.95;;;1.33;;
44222;SDS011;29895;48.804;9.386;2023-12-20T00:34:41;2.60;;;1.23;;
44222;SDS011;29895;48.804;9.386;2023-12-20T00:37:07;2.10;;;1.10;;
44222;SDS011;29895;48.804;9.386;2023-12-20T00:39:33;1.75;;;1.30;;
44222;SDS011;29895;48.804;9.386;2023-12-20T00:41:58;2.42;;;1.40;;
44222;SDS011;29895;48.804;9.386;2023-12-20T00:44:24;2.17;;;1.13;;
44222;SDS011;29895;48.804;9.386;2023-12-20T00:46:50;3.03;;;1.17;;
44222;SDS011;29895;48.804;9.386;2023-12-20T00:49:15;4.30;;;1.75;;
44222;SDS011;29895;48.804;9.386;2023-12-20T00:51:41;2.63;;;1.67;;
44222;SDS011;29895;48.804;9.386;2023-12-20T00:54:07;2.72;;;1.60;;
44222;SDS011;29895;48.804;9.386;2023-12-20T00:56:32;3.33;;;1.40;;
44222;SDS011;29895;48.804;9.386;2023-12-20T00:58:58;2.85;;;1.67;;
44222;SDS011;29895;48.804;9.386;2023-12-20T01:01:24;2.75;;;1.52;;
44222;SDS011;29895;48.804;9.386;2023-12-20T01:03:49;3.58;;;1.80;;
44222;SDS011;29895;48.804;9.386;2023-12-20T01:06:16;4.45;;;1.83;;
44222;SDS011;29895;48.804;9.386;2023-12-20T01:08:42;2.63;;;1.90;;
44222;SDS011;29895;48.804;9.386;2023-12-20T01:11:07;3.20;;;1.88;;
44222;SDS011;29895;48.804;9.386;2023-12-20T01:13:33;4.13;;;2.00;;
44222;SDS011;29895;48.804;9.386;2023-12-20T01:15:59;5.03;;;1.85;;
44222;SDS011;29895;48.804;9.386;2023-12-20T01:18:24;4.57;;;1.98;;
44222;SDS011;29895;48.804;9.386;2023-12-20T01:20:50;3.97;;;1.75;;
44222;SDS011;29895;48.804;9.386;2023-12-20T01:23:16;3.55;;;2.10;;
44222;SDS011;29895;48.804;9.386;2023-12-20T01:25:41;4.22;;;1.85;;
44222;SDS011;29895;48.804;9.386;2023-12-20T01:28:08;6.40;;;2.30;;
44222;SDS011;29895;48.804;9.386;2023-12-20T01:30:33;4.40;;;2.00;;
44222;SDS011;29895;48.804;9.386;2023-12-20T01:33:00;2.30;;;1.63;;
44222;SDS011;29895;48.804;9.386;2023-12-20T01:35:26;4.68;;;1.83;;
44222;SDS011;29895;48.804;9.386;2023-12-20T01:37:52;6.28;;;2.00;;
44222;SDS011;29895;48.804;9.386;2023-12-20T01:40:21;2.65;;;1.90;;
44222;SDS011;29895;48.804;9.386;2023-12-20T01:42:47;3.33;;;1.73;;
44222;SDS011;29895;48.804;9.386;2023-12-20T01:45:22;5.25;;;1.85;;
44222;SDS011;29895;48.804;9.386;2023-12-20T01:47:48;4.10;;;2.20;;
44222;SDS011;29895;48.804;9.386;2023-12-20T01:50:13;3.95;;;2.00;;
44222;SDS011;29895;48.804;9.386;2023-12-20T01:52:39;4.18;;;2.20;;
44222;SDS011;29895;48.804;9.386;2023-12-20T01:55:07;3.38;;;2.20;;
44222;SDS011;29895;48.804;9.386;2023-12-20T01:57:38;4.53;;;2.35;;
44222;SDS011;29895;48.804;9.386;2023-12-20T02:00:07;2.78;;;1.98;;
44222;SDS011;29895;48.804;9.386;2023-12-20T02:02:34;5.03;;;2.30;;
44222;SDS011;29895;48.804;9.386;2023-12-20T02:05:02;5.47;;;2.33;;
44222;SDS011;29895;48.804;9.386;2023-12-20T02:07:28;4.57;;;2.10;;
44222;SDS011;29895;48.804;9.386;2023-12-20T02:09:55;5.93;;;2.60;;
44222;SDS011;29895;48.804;9.386;2023-12-20T02:12:22;4.47;;;2.30;;
44222;SDS011;29895;48.804;9.386;2023-12-20T02:14:48;5.38;;;2.03;;
44222;SDS011;29895;48.804;9.386;2023-12-20T02:17:14;5.47;;;2.35;;
44222;SDS011;29895;48.804;9.386;2023-12-20T02:19:40;6.30;;;3.22;;
44222;SDS011;29895;48.804;9.386;2023-12-20T02:22:15;5.22;;;2.45;;
44222;SDS011;29895;48.804;9.386;2023-12-20T02:24:40;4.22;;;2.28;;
44222;SDS011;29895;48.804;9.386;2023-12-20T02:27:06;5.15;;;2.80;;
44222;SDS011;29895;48.804;9.386;2023-12-20T02:29:33;6.70;;;2.65;;
44222;SDS011;29895;48.804;9.386;2023-12-20T02:31:59;6.32;;;3.13;;
44222;SDS011;29895;48.804;9.386;2023-12-20T02:34:25;5.63;;;2.90;;
44222;SDS011;29895;48.804;9.386;2023-12-20T02:36:51;4.18;;;2.65;;
44222;SDS011;29895;48.804;9.386;2023-12-20T02:39:18;5.90;;;3.03;;
44222;SDS011;29895;48.804;9.386;2023-12-20T02:41:44;5.22;;;3.63;;
44222;SDS011;29895;48.804;9.386;2023-12-20T02:44:10;6.57;;;3.67;;
44222;SDS011;29895;48.804;9.386;2023-12-20T02:46:35;5.85;;;3.20;;
44222;SDS011;29895;48.804;9.386;2023-12-20T02:49:01;7.78;;;3.80;;
44222;SDS011;29895;48.804;9.386;2023-12-20T02:51:26;5.72;;;3.25;;
44222;SDS011;29895;48.804;9.386;2023-12-20T02:53:52;5.82;;;3.50;;
44222;SDS011;29895;48.804;9.386;2023-12-20T02:56:18;6.18;;;3.75;;
44222;SDS011;29895;48.804;9.386;2023-12-20T02:58:43;5.03;;;3.45;;
44222;SDS011;29895;48.804;9.386;2023-12-20T03:01:09;6.35;;;3.50;;
44222;SDS011;29895;48.804;9.386;2023-12-20T03:03:35;5.65;;;3.45;;
44222;SDS011;29895;48.804;9.386;2023-12-20T03:06:00;5.40;;;3.30;;
44222;SDS011;29895;48.804;9.386;2023-12-20T03:08:26;5.13;;;3.28;;
44222;SDS011;29895;48.804;9.386;2023-12-20T03:10:51;6.78;;;3.90;;
44222;SDS011;29895;48.804;9.386;2023-12-20T03:13:18;7.43;;;3.40;;
44222;SDS011;29895;48.804;9.386;2023-12-20T03:15:44;4.45;;;3.55;;
44222;SDS011;29895;48.804;9.386;2023-12-20T03:18:10;6.45;;;3.90;;
44222;SDS011;29895;48.804;9.386;2023-12-20T03:20:36;7.47;;;4.10;;
44222;SDS011;29895;48.804;9.386;2023-12-20T03:23:01;10.35;;;4.50;;
44222;SDS011;29895;48.804;9.386;2023-12-20T03:25:27;8.95;;;4.95;;
44222;SDS011;29895;48.804;9.386;2023-12-20T03:27:53;6.32;;;4.57;;
44222;SDS011;29895;48.804;9.386;2023-12-20T03:30:19;10.30;;;4.50;;
44222;SDS011;29895;48.804;9.386;2023-12-20T03:32:45;7.18;;;4.85;;
44222;SDS011;29895;48.804;9.386;2023-12-20T03:35:11;7.28;;;4.63;;
44222;SDS011;29895;48.804;9.386;2023-12-20T03:37:37;8.95;;;5.20;;
44222;SDS011;29895;48.804;9.386;2023-12-20T03:40:03;10.48;;;5.68;;
44222;SDS011;29895;48.804;9.386;2023-12-20T03:42:29;10.35;;;5.55;;
44222;SDS011;29895;48.804;9.386;2023-12-20T03:44:54;11.10;;;6.13;;
44222;SDS011;29895;48.804;9.386;2023-12-20T03:47:20;9.95;;;6.57;;
44222;SDS011;29895;48.804;9.386;2023-12-20T03:49:45;13.57;;;7.57;;
44222;SDS011;29895;48.804;9.386;2023-12-20T03:52:11;11.55;;;7.53;;
44222;SDS011;29895;48.804;9.386;2023-12-20T03:54:37;14.75;;;8.23;;
44222;SDS011;29895;48.804;9.386;2023-12-20T03:57:03;12.52;;;8.15;;
44222;SDS011;29895;48.804;9.386;2023-12-20T03:59:29;10.73;;;7.10;;
44222;SDS011;29895;48.804;9.386;2023-12-20T04:01:55;12.13;;;7.68;;
44222;SDS011;29895;48.804;9.386;2023-12-20T04:04:20;13.27;;;7.60;;
44222;SDS011;29895;48.804;9.386;2023-12-20T04:06:46;14.85;;;7.07;;
44222;SDS011;29895;48.804;9.386;2023-12-20T04:09:12;10.98;;;7.03;;
44222;SDS011;29895;48.804;9.386;2023-12-20T04:11:38;8.52;;;5.40;;
44222;SDS011;29895;48.804;9.386;2023-12-20T04:14:03;7.70;;;5.07;;
44222;SDS011;29895;48.804;9.386;2023-12-20T04:16:32;7.45;;;4.80;;
44222;SDS011;29895;48.804;9.386;2023-12-20T04:18:58;6.22;;;4.38;;
44222;SDS011;29895;48.804;9.386;2023-12-20T04:21:23;6.63;;;3.67;;
44222;SDS011;29895;48.804;9.386;2023-12-20T04:23:49;5.72;;;3.20;;
44222;SDS011;29895;48.804;9.386;2023-12-20T04:26:15;4.10;;;2.63;;
44222;SDS011;29895;48.804;9.386;2023-12-20T04:28:40;3.78;;;1.73;;
44222;SDS011;29895;48.804;9.386;2023-12-20T04:31:07;2.30;;;1.88;;
44222;SDS011;29895;48.804;9.386;2023-12-20T04:33:32;4.47;;;1.70;;
44222;SDS011;29895;48.804;9.386;2023-12-20T04:35:58;6.38;;;2.22;;
44222;SDS011;29895;48.804;9.386;2023-12-20T04:38:25;4.68;;;0.90;;
44222;SDS011;29895;48.804;9.386;2023-12-20T04:40:50;0.98;;;0.80;;
44222;SDS011;29895;48.804;9.386;2023-12-20T04:43:16;2.50;;;0.90;;
44222;SDS011;29895;48.804;9.386;2023-12-20T04:45:42;1.58;;;0.80;;
44222;SDS011;29895;48.804;9.386;2023-12-20T04:48:08;0.88;;;0.65;;
44222;SDS011;29895;48.804;9.386;2023-12-20T04:50:34;0.98;;;0.57;;
44222;SDS011;29895;48.804;9.386;2023-12-20T04:52:59;1.80;;;0.80;;
44222;SDS011;29895;48.804;9.386;2023-12-20T04:55:25;1.92;;;0.60;;
44222;SDS011;29895;48.804;9.386;2023-12-20T04:57:51;0.63;;;0.40;;
44222;SDS011;29895;48.804;9.386;2023-12-20T05:00:17;0.40;;;0.20;;
44222;SDS011;29895;48.804;9.386;2023-12-20T05:02:42;1.20;;;0.40;;
44222;SDS011;29895;48.804;9.386;2023-12-20T05:05:08;0.32;;;0.22;;
44222;SDS011;29895;48.804;9.386;2023-12-20T05:07:34;0.32;;;0.30;;
44222;SDS011;29895;48.804;9.386;2023-12-20T05:09:59;0.73;;;0.40;;
44222;SDS011;29895;48.804;9.386;2023-12-20T05:12:25;1.63;;;0.80;;
44222;SDS011;29895;48.804;9.386;2023-12-20T05:14:51;6.88;;;3.65;;
44222;SDS011;29895;48.804;9.386;2023-12-20T05:17:17;12.57;;;6.70;;
44222;SDS011;29895;48.804;9.386;2023-12-20T05:19:43;12.63;;;5.72;;
44222;SDS011;29895;48.804;9.386;2023-12-20T05:22:09;8.65;;;4.38;;
44222;SDS011;29895;48.804;9.386;2023-12-20T05:24:35;6.45;;;3.40;;
44222;SDS011;29895;48.804;9.386;2023-12-20T05:27:00;3.42;;;1.50;;
44222;SDS011;29895;48.804;9.386;2023-12-20T05:29:26;2.72;;;1.10;;
44222;SDS011;29895;48.804;9.386;2023-12-20T05:31:51;3.60;;;0.75;;
44222;SDS011;29895;48.804;9.386;2023-12-20T05:34:17;0.98;;;0.52;;
44222;SDS011;29895;48.804;9.386;2023-12-20T05:36:43;4.40;;;1.00;;
44222;SDS011;29895;48.804;9.386;2023-12-20T05:39:08;1.63;;;0.98;;
44222;SDS011;29895;48.804;9.386;2023-12-20T05:41:34;3.63;;;0.98;;
44222;SDS011;29895;48.804;9.386;2023-12-20T05:44:00;0.70;;;0.60;;
44222;SDS011;29895;48.804;9.386;2023-12-20T05:46:25;1.10;;;0.70;;
44222;SDS011;29895;48.804;9.386;2023-12-20T05:48:52;2.05;;;1.00;;
44222;SDS011;29895;48.804;9.386;2023-12-20T05:51:18;2.08;;;1.00;;
44222;SDS011;29895;48.804;9.386;2023-12-20T05:53:44;1.70;;;1.00;;
44222;SDS011;29895;48.804;9.386;2023-12-20T05:56:10;1.67;;;0.82;;
44222;SDS011;29895;48.804;9.386;2023-12-20T05:58:35;2.33;;;1.10;;
44222;SDS011;29895;48.804;9.386;2023-12-20T06:01:04;4.28;;;1.35;;
44222;SDS011;29895;48.804;9.386;2023-12-20T06:03:30;4.25;;;1.23;;
44222;SDS011;29895;48.804;9.386;2023-12-20T06:05:56;1.75;;;1.25;;
44222;SDS011;29895;48.804;9.386;2023-12-20T06:08:22;1.65;;;0.80;;
44222;SDS011;29895;48.804;9.386;2023-12-20T06:10:48;2.45;;;1.00;;
44222;SDS011;29895;48.804;9.386;2023-12-20T06:13:13;2.00;;;1.15;;
44222;SDS011;29895;48.804;9.386;2023-12-20T06:15:39;3.75;;;1.00;;
44222;SDS011;29895;48.804;9.386;2023-12-20T06:18:05;2.47;;;1.20;;
44222;SDS011;29895;48.804;9.386;2023-12-20T06:20:31;1.23;;;0.93;;
44222;SDS011;29895;48.804;9.386;2023-12-20T06:22:57;2.35;;;1.10;;
44222;SDS011;29895;48.804;9.386;2023-12-20T06:25:23;1.90;;;1.23;;
44222;SDS011;29895;48.804;9.386;2023-12-20T06:27:49;1.23;;;0.93;;
44222;SDS011;29895;48.804;9.386;2023-12-20T06:30:15;2.55;;;1.40;;
44222;SDS011;29895;48.804;9.386;2023-12-20T06:32:41;2.95;;;1.30;;
44222;SDS011;29895;48.804;9.386;2023-12-20T06:35:08;5.15;;;1.30;;
44222;SDS011;29895;48.804;9.386;2023-12-20T06:37:34;3.50;;;0.90;;
44222;SDS011;29895;48.804;9.386;2023-12-20T06:40:00;4.28;;;1.45;;
44222;SDS011;29895;48.804;9.386;2023-12-20T06:42:26;1.58;;;0.90;;
44222;SDS011;29895;48.804;9.386;2023-12-20T06:44:52;2.97;;;1.45;;
44222;SDS011;29895;48.804;9.386;2023-12-20T06:47:17;4.88;;;1.40;;
44222;SDS011;29895;48.804;9.386;2023-12-20T06:49:43;2.95;;;1.40;;
44222;SDS011;29895;48.804;9.386;2023-12-20T06:52:09;2.83;;;1.30;;
44222;SDS011;29895;48.804;9.386;2023-12-20T06:54:34;4.07;;;1.42;;
44222;SDS011;29895;48.804;9.386;2023-12-20T06:57:00;3.45;;;1.10;;
44222;SDS011;29895;48.804;9.386;2023-12-20T06:59:28;4.55;;;1.33;;
44222;SDS011;29895;48.804;9.386;2023-12-20T07:01:54;2.03;;;1.00;;
44222;SDS011;29895;48.804;9.386;2023-12-20T07:04:19;1.95;;;1.05;;
44222;SDS011;29895;48.804;9.386;2023-12-20T07:06:48;2.03;;;1.00;;
44222;SDS011;29895;48.804;9.386;2023-12-20T07:09:16;5.97;;;1.30;;
44222;SDS011;29895;48.804;9.386;2023-12-20T07:11:42;6.35;;;1.15;;
44222;SDS011;29895;48.804;9.386;2023-12-20T07:14:08;4.35;;;1.20;;
44222;SDS011;29895;48.804;9.386;2023-12-20T07:16:33;2.83;;;1.58;;
44222;SDS011;29895;48.804;9.386;2023-12-20T07:19:00;2.63;;;1.67;;
44222;SDS011;29895;48.804;9.386;2023-12-20T07:21:25;3.92;;;1.73;;
44222;SDS011;29895;48.804;9.386;2023-12-20T07:23:51;4.40;;;1.80;;
44222;SDS011;29895;48.804;9.386;2023-12-20T07:26:17;8.00;;;2.05;;
44222;SDS011;29895;48.804;9.386;2023-12-20T07:28:42;4.85;;;2.00;;
44222;SDS011;29895;48.804;9.386;2023-12-20T07:31:08;3.78;;;1.98;;
44222;SDS011;29895;48.804;9.386;2023-12-20T07:33:34;4.80;;;1.77;;
44222;SDS011;29895;48.804;9.386;2023-12-20T07:35:59;3.72;;;2.38;;
44222;SDS011;29895;48.804;9.386;2023-12-20T07:38:25;5.20;;;2.67;;
44222;SDS011;29895;48.804;9.386;2023-12-20T07:40:51;3.88;;;2.42;;
44222;SDS011;29895;48.804;9.386;2023-12-20T07:43:17;4.20;;;2.72;;
44222;SDS011;29895;48.804;9.386;2023-12-20T07:45:42;5.75;;;3.25;;
44222;SDS011;29895;48.804;9.386;2023-12-20T07:48:08;9.95;;;4.45;;
44222;SDS011;29895;48.804;9.386;2023-12-20T07:50:34;7.45;;;4.60;;
44222;SDS011;29895;48.804;9.386;2023-12-20T07:52:59;5.88;;;4.30;;
44222;SDS011;29895;48.804;9.386;2023-12-20T07:55:26;9.88;;;6.28;;
44222;SDS011;29895;48.804;9.386;2023-12-20T07:57:52;11.30;;;5.90;;
44222;SDS011;29895;48.804;9.386;2023-12-20T08:00:18;10.98;;;5.78;;
44222;SDS011;29895;48.804;9.386;2023-12-20T08:02:44;8.23;;;5.07;;
44222;SDS011;29895;48.804;9.386;2023-12-20T08:05:10;8.27;;;5.25;;
44222;SDS011;29895;48.804;9.386;2023-12-20T08:07:36;14.38;;;5.47;;
44222;SDS011;29895;48.804;9.386;2023-12-20T08:10:01;8.43;;;5.20;;
44222;SDS011;29895;48.804;9.386;2023-12-20T08:12:27;6.97;;;5.10;;
44222;SDS011;29895;48.804;9.386;2023-12-20T08:14:53;8.75;;;5.10;;
44222;SDS011;29895;48.804;9.386;2023-12-20T08:17:19;8.95;;;5.18;;
44222;SDS011;29895;48.804;9.386;2023-12-20T08:19:45;8.40;;;5.28;;
44222;SDS011;29895;48.804;9.386;2023-12-20T08:22:10;6.82;;;4.88;;
44222;SDS011;29895;48.804;9.386;2023-12-20T08:24:37;10.55;;;5.43;;
44222;SDS011;29895;48.804;9.386;2023-12-20T08:27:03;6.40;;;4.68;;
44222;SDS011;29895;48.804;9.386;2023-12-20T08:29:29;12.75;;;5.50;;
44222;SDS011;29895;48.804;9.386;2023-12-20T08:31:55;7.65;;;4.80;;
44222;SDS011;29895;48.804;9.386;2023-12-20T08:34:21;6.85;;;4.22;;
44222;SDS011;29895;48.804;9.386;2023-12-20T08:36:48;6.28;;;3.83;;
44222;SDS011;29895;48.804;9.386;2023-12-20T08:39:16;6.50;;;4.25;;
44222;SDS011;29895;48.804;9.386;2023-12-20T08:41:42;8.40;;;4.40;;
44222;SDS011;29895;48.804;9.386;2023-12-20T08:44:08;6.40;;;3.92;;
44222;SDS011;29895;48.804;9.386;2023-12-20T08:46:34;6.15;;;3.80;;
44222;SDS011;29895;48.804;9.386;2023-12-20T08:49:00;9.70;;;4.47;;
44222;SDS011;29895;48.804;9.386;2023-12-20T08:51:26;8.35;;;4.30;;
44222;SDS011;29895;48.804;9.386;2023-12-20T08:53:52;7.30;;;4.20;;
44222;SDS011;29895;48.804;9.386;2023-12-20T08:56:18;6.90;;;4.13;;
44222;SDS011;29895;48.804;9.386;2023-12-20T08:58:45;8.05;;;4.65;;
44222;SDS011;29895;48.804;9.386;2023-12-20T09:01:11;8.98;;;4.75;;
44222;SDS011;29895;48.804;9.386;2023-12-20T09:03:37;9.95;;;5.10;;
44222;SDS011;29895;48.804;9.386;2023-12-20T09:06:03;7.55;;;4.57;;
44222;SDS011;29895;48.804;9.386;2023-12-20T09:08:30;8.10;;;4.38;;
44222;SDS011;29895;48.804;9.386;2023-12-20T09:10:56;8.55;;;4.03;;
44222;SDS011;29895;48.804;9.386;2023-12-20T09:13:21;8.05;;;4.38;;
44222;SDS011;29895;48.804;9.386;2023-12-20T09:15:52;9.60;;;4.22;;
44222;SDS011;29895;48.804;9.386;2023-12-20T09:18:21;6.20;;;3.47;;
44222;SDS011;29895;48.804;9.386;2023-12-20T09:20:47;7.88;;;3.60;;
44222;SDS011;29895;48.804;9.386;2023-12-20T09:23:12;8.95;;;4.00;;
44222;SDS011;29895;48.804;9.386;2023-12-20T09:25:38;8.95;;;3.95;;
44222;SDS011;29895;48.804;9.386;2023-12-20T09:28:04;8.57;;;3.50;;
44222;SDS011;29895;48.804;9.386;2023-12-20T09:30:29;7.90;;;3.10;;
44222;SDS011;29895;48.804;9.386;2023-12-20T09:32:56;8.68;;;3.50;;
44222;SDS011;29895;48.804;9.386;2023-12-20T09:35:21;9.88;;;3.72;;
44222;SDS011;29895;48.804;9.386;2023-12-20T09:37:47;9.70;;;3.85;;
44222;SDS011;29895;48.804;9.386;2023-12-20T09:40:13;10.77;;;3.17;;
44222;SDS011;29895;48.804;9.386;2023-12-20T09:45:20;4.55;;;2.78;;
44222;SDS011;29895;48.804;9.386;2023-12-20T09:47:49;7.55;;;2.92;;
44222;SDS011;29895;48.804;9.386;2023-12-20T09:50:16;4.00;;;2.20;;
44222;SDS011;29895;48.804;9.386;2023-12-20T09:52:50;6.33;;;2.67;;
44222;SDS011;29895;48.804;9.386;2023-12-20T09:55:18;5.68;;;1.90;;
44222;SDS011;29895;48.804;9.386;2023-12-20T09:57:45;4.45;;;2.08;;
44222;SDS011;29895;48.804;9.386;2023-12-20T10:00:11;6.35;;;2.38;;
44222;SDS011;29895;48.804;9.386;2023-12-20T10:02:59;5.68;;;2.30;;
44222;SDS011;29895;48.804;9.386;2023-12-20T10:05:26;7.82;;;2.38;;
44222;SDS011;29895;48.804;9.386;2023-12-20T10:07:58;6.43;;;2.42;;
44222;SDS011;29895;48.804;9.386;2023-12-20T10:10:25;6.13;;;2.00;;
44222;SDS011;29895;48.804;9.386;2023-12-20T10:15:46;4.85;;;1.58;;
44222;SDS011;29895;48.804;9.386;2023-12-20T10:18:14;6.80;;;1.63;;
44222;SDS011;29895;48.804;9.386;2023-12-20T10:20:40;7.88;;;1.88;;
44222;SDS011;29895;48.804;9.386;2023-12-20T10:23:07;14.00;;;1.48;;
44222;SDS011;29895;48.804;9.386;2023-12-20T10:25:33;9.73;;;1.45;;
44222;SDS011;29895;48.804;9.386;2023-12-20T10:28:09;9.05;;;1.45;;
44222;SDS011;29895;48.804;9.386;2023-12-20T10:30:35;4.00;;;1.70;;
44222;SDS011;29895;48.804;9.386;2023-12-20T10:33:01;8.65;;;1.77;;
44222;SDS011;29895;48.804;9.386;2023-12-20T10:35:27;5.82;;;1.88;;
44222;SDS011;29895;48.804;9.386;2023-12-20T10:37:54;8.88;;;1.80;;
44222;SDS011;29895;48.804;9.386;2023-12-20T10:40:21;7.28;;;1.60;;
44222;SDS011;29895;48.804;9.386;2023-12-20T10:42:47;5.22;;;1.50;;
44222;SDS011;29895;48.804;9.386;2023-12-20T10:45:15;6.22;;;1.42;;
44222;SDS011;29895;48.804;9.386;2023-12-20T10:47:42;9.38;;;1.40;;
44222;SDS011;29895;48.804;9.386;2023-12-20T10:50:11;4.88;;;1.63;;
44222;SDS011;29895;48.804;9.386;2023-12-20T10:52:37;9.15;;;1.83;;
44222;SDS011;29895;48.804;9.386;2023-12-20T10:55:04;9.05;;;1.50;;
44222;SDS011;29895;48.804;9.386;2023-12-20T10:57:30;2.30;;;0.90;;
44222;SDS011;29895;48.804;9.386;2023-12-20T10:59:55;7.32;;;1.42;;
44222;SDS011;29895;48.804;9.386;2023-12-20T11:02:29;4.22;;;1.40;;
44222;SDS011;29895;48.804;9.386;2023-12-20T11:05:06;7.35;;;1.88;;
44222;SDS011;29895;48.804;9.386;2023-12-20T11:07:36;9.18;;;1.88;;
44222;SDS011;29895;48.804;9.386;2023-12-20T11:10:21;6.80;;;2.38;;
44222;SDS011;29895;48.804;9.386;2023-12-20T11:12:52;5.97;;;1.83;;
44222;SDS011;29895;48.804;9.386;2023-12-20T11:15:36;12.05;;;2.05;;
44222;SDS011;29895;48.804;9.386;2023-12-20T11:18:01;8.35;;;1.58;;
44222;SDS011;29895;48.804;9.386;2023-12-20T11:20:38;4.97;;;1.25;;
44222;SDS011;29895;48.804;9.386;2023-12-20T11:23:05;6.38;;;1.38;;
44222;SDS011;29895;48.804;9.386;2023-12-20T11:28:30;9.95;;;2.22;;
44222;SDS011;29895;48.804;9.386;2023-12-20T11:30:56;9.95;;;1.45;;
44222;SDS011;29895;48.804;9.386;2023-12-20T11:33:26;22.02;;;6.05;;
44222;SDS011;29895;48.804;9.386;2023-12-20T11:35:55;17.88;;;5.35;;
44222;SDS011;29895;48.804;9.386;2023-12-20T11:38:21;25.70;;;6.30;;
44222;SDS011;29895;48.804;9.386;2023-12-20T11:40:48;15.35;;;4.75;;
44222;SDS011;29895;48.804;9.386;2023-12-20T11:46:04;8.27;;;2.00;;
44222;SDS011;29895;48.804;9.386;2023-12-20T11:48:31;9.35;;;2.20;;
44222;SDS011;29895;48.804;9.386;2023-12-20T11:50:57;8.88;;;2.08;;
44222;SDS011;29895;48.804;9.386;2023-12-20T11:53:23;10.50;;;3.63;;
44222;SDS011;29895;48.804;9.386;2023-12-20T11:55:51;6.63;;;1.52;;
44222;SDS011;29895;48.804;9.386;2023-12-20T11:58:21;5.50;;;1.17;;
44222;SDS011;29895;48.804;9.386;2023-12-20T12:00:49;8.63;;;1.50;;
44222;SDS011;29895;48.804;9.386;2023-12-20T12:03:15;8.70;;;1.52;;
44222;SDS011;29895;48.804;9.386;2023-12-20T12:05:41;7.53;;;1.73;;
44222;SDS011;29895;48.804;9.386;2023-12-20T12:08:07;11.80;;;1.98;;
44222;SDS011;29895;48.804;9.386;2023-12-20T12:10:32;8.88;;;1.80;;
44222;SDS011;29895;48.804;9.386;2023-12-20T12:12:58;5.22;;;1.67;;
44222;SDS011;29895;48.804;9.386;2023-12-20T12:15:25;9.45;;;1.95;;
44222;SDS011;29895;48.804;9.386;2023-12-20T12:17:54;7.25;;;1.70;;
44222;SDS011;29895;48.804;9.386;2023-12-20T12:20:21;8.18;;;1.88;;
44222;SDS011;29895;48.804;9.386;2023-12-20T12:22:57;13.52;;;2.25;;
44222;SDS011;29895;48.804;9.386;2023-12-20T12:25:24;5.78;;;1.58;;
44222;SDS011;29895;48.804;9.386;2023-12-20T12:27:50;10.20;;;1.88;;
44222;SDS011;29895;48.804;9.386;2023-12-20T12:30:16;8.75;;;1.60;;
44222;SDS011;29895;48.804;9.386;2023-12-20T12:32:43;15.45;;;3.00;;
44222;SDS011;29895;48.804;9.386;2023-12-20T12:35:10;10.65;;;2.08;;
44222;SDS011;29895;48.804;9.386;2023-12-20T12:37:37;9.45;;;1.70;;
44222;SDS011;29895;48.804;9.386;2023-12-20T12:40:09;7.20;;;1.52;;
44222;SDS011;29895;48.804;9.386;2023-12-20T12:42:36;11.80;;;1.95;;
44222;SDS011;29895;48.804;9.386;2023-12-20T12:45:02;8.32;;;1.77;;
44222;SDS011;29895;48.804;9.386;2023-12-20T12:47:29;5.50;;;1.98;;
44222;SDS011;29895;48.804;9.386;2023-12-20T12:49:55;13.00;;;3.67;;
44222;SDS011;29895;48.804;9.386;2023-12-20T12:52:21;13.20;;;1.80;;
44222;SDS011;29895;48.804;9.386;2023-12-20T12:54:47;11.48;;;2.92;;
44222;SDS011;29895;48.804;9.386;2023-12-20T12:57:14;12.20;;;3.10;;
44222;SDS011;29895;48.804;9.386;2023-12-20T12:59:41;23.08;;;8.93;;
44222;SDS011;29895;48.804;9.386;2023-12-20T13:02:07;16.48;;;4.50;;
44222;SDS011;29895;48.804;9.386;2023-12-20T13:04:33;9.82;;;2.72;;
44222;SDS011;29895;48.804;9.386;2023-12-20T13:06:59;7.95;;;1.90;;
44222;SDS011;29895;48.804;9.386;2023-12-20T13:09:25;9.75;;;1.58;;
44222;SDS011;29895;48.804;9.386;2023-12-20T13:11:50;6.57;;;1.15;;
44222;SDS011;29895;48.804;9.386;2023-12-20T13:14:16;10.30;;;2.60;;
44222;SDS011;29895;48.804;9.386;2023-12-20T13:16:42;9.10;;;2.00;;
44222;SDS011;29895;48.804;9.386;2023-12-20T13:19:07;8.57;;;1.73;;
44222;SDS011;29895;48.804;9.386;2023-12-20T13:21:34;5.95;;;1.65;;
44222;SDS011;29895;48.804;9.386;2023-12-20T13:24:00;5.53;;;1.40;;
44222;SDS011;29895;48.804;9.386;2023-12-20T13:26:26;12.60;;;1.75;;
44222;SDS011;29895;48.804;9.386;2023-12-20T13:28:52;8.77;;;2.33;;
44222;SDS011;29895;48.804;9.386;2023-12-20T13:31:19;5.18;;;1.92;;
44222;SDS011;29895;48.804;9.386;2023-12-20T13:33:45;7.63;;;2.05;;
44222;SDS011;29895;48.804;9.386;2023-12-20T13:36:11;6.07;;;1.63;;
44222;SDS011;29895;48.804;9.386;2023-12-20T13:38:37;7.55;;;1.40;;
44222;SDS011;29895;48.804;9.386;2023-12-20T13:41:03;7.15;;;2.17;;
44222;SDS011;29895;48.804;9.386;2023-12-20T13:43:29;6.60;;;1.10;;
44222;SDS011;29895;48.804;9.386;2023-12-20T13:45:57;10.15;;;1.58;;
44222;SDS011;29895;48.804;9.386;2023-12-20T13:48:23;6.55;;;1.20;;
44222;SDS011;29895;48.804;9.386;2023-12-20T13:50:49;4.90;;;1.35;;
44222;SDS011;29895;48.804;9.386;2023-12-20T13:53:14;8.73;;;1.42;;
44222;SDS011;29895;48.804;9.386;2023-12-20T13:55:40;9.55;;;1.73;;
44222;SDS011;29895;48.804;9.386;2023-12-20T13:58:06;5.63;;;1.10;;
44222;SDS011;29895;48.804;9.386;2023-12-20T14:00:32;6.93;;;1.23;;
44222;SDS011;29895;48.804;9.386;2023-12-20T14:02:57;7.78;;;1.42;;
44222;SDS011;29895;48.804;9.386;2023-12-20T14:05:23;5.32;;;1.20;;
44222;SDS011;29895;48.804;9.386;2023-12-20T14:07:49;8.10;;;2.03;;
44222;SDS011;29895;48.804;9.386;2023-12-20T14:10:15;8.65;;;1.20;;
44222;SDS011;29895;48.804;9.386;2023-12-20T14:12:41;7.10;;;1.50;;
44222;SDS011;29895;48.804;9.386;2023-12-20T14:15:07;9.68;;;1.55;;
44222;SDS011;29895;48.804;9.386;2023-12-20T14:17:35;9.52;;;1.40;;
44222;SDS011;29895;48.804;9.386;2023-12-20T14:20:02;7.18;;;1.75;;
44222;SDS011;29895;48.804;9.386;2023-12-20T14:22:28;10.07;;;1.60;;
44222;SDS011;29895;48.804;9.386;2023-12-20T14:24:54;6.18;;;1.60;;
44222;SDS011;29895;48.804;9.386;2023-12-20T14:27:19;8.00;;;1.70;;
44222;SDS011;29895;48.804;9.386;2023-12-20T14:29:48;5.38;;;1.27;;
44222;SDS011;29895;48.804;9.386;2023-12-20T14:32:14;8.15;;;2.10;;
44222;SDS011;29895;48.804;9.386;2023-12-20T14:34:40;5.97;;;1.50;;
44222;SDS011;29895;48.804;9.386;2023-12-20T14:37:06;7.28;;;1.67;;
44222;SDS011;29895;48.804;9.386;2023-12-20T14:39:31;8.98;;;1.83;;
44222;SDS011;29895;48.804;9.386;2023-12-20T14:41:57;8.77;;;1.65;;
44222;SDS011;29895;48.804;9.386;2023-12-20T14:44:23;6.68;;;1.60;;
44222;SDS011;29895;48.804;9.386;2023-12-20T14:46:48;7.68;;;1.58;;
44222;SDS011;29895;48.804;9.386;2023-12-20T14:49:15;8.88;;;1.65;;
44222;SDS011;29895;48.804;9.386;2023-12-20T14:51:43;9.18;;;1.40;;